Time,TemperatureF,DewpointF,PressureIn,WindDirection,WindDirectionDegrees,WindSpeedMPH,WindSpeedGustMPH,Humidity,HourlyPrecipIn,Conditions,Clouds,dailyrainin,SoftwareType,DateUTC
2013-10-15 00:04:00,44.2,38.8,30.41,SSE,147,0.0,0.0,81,0.00,NA,NA,-99.99,VWS Version 10.38,2013-10-15 04:04:00,
2013-10-15 00:09:00,44.1,38.6,30.41,SSE,147,0.0,0.0,81,0.00,NA,NA,-99.99,VWS Version 10.38,2013-10-15 04:09:00,
2013-10-15 00:14:00,44.1,38.6,30.41,SSE,147,0.0,0.0,81,0.00,NA,NA,-99.99,VWS Version 10.38,2013-10-15 04:14:00,
2013-10-15 00:19:00,44.1,38.6,30.41,SSE,147,0.0,0.0,81,0.00,NA,NA,-99.99,VWS Version 10.38,2013-10-15 04:19:00,
2013-10-15 00:24:00,43.9,38.4,30.41,SSE,147,0.0,0.0,81,0.00,NA,NA,-99.99,VWS Version 10.38,2013-10-15 04:24:00,
2013-10-15 00:29:00,44.1,38.9,30.41,SSE,147,0.0,0.0,82,0.00,NA,NA,-99.99,VWS Version 10.38,2013-10-15 04:29:00,
2013-10-15 00:34:00,44.1,38.9,30.41,SSE,147,0.0,0.0,82,0.00,NA,NA,-99.99,VWS Version 10.38,2013-10-15 04:34:00,
2013-10-15 00:40:00,44.1,38.9,30.41,SSE,147,0.0,0.0,82,0.00,NA,NA,-99.99,VWS Version 10.38,2013-10-15 04:40:00,
2013-10-15 00:45:00,44.1,38.9,30.41,SSE,147,0.0,0.0,82,0.00,NA,NA,-99.99,VWS Version 10.38,2013-10-15 04:45:00,
2013-10-15 00:50:00,44.1,38.9,30.41,SSE,147,0.0,0.0,82,0.00,NA,NA,-99.99,VWS Version 10.38,2013-10-15 04:50:00,
2013-10-15 01:00:00,44.1,39.2,30.41,SSE,147,0.0,0.0,83,0.00,NA,NA,-99.99,VWS Version 10.38,2013-10-15 05:00:00,
2013-10-15 01:05:00,43.7,38.9,30.41,SSE,147,0.0,0.0,83,0.00,NA,NA,-99.99,VWS Version 10.38,2013-10-15 05:05:00,
2013-10-15 01:10:00,43.7,38.9,30.41,SSE,147,0.0,0.0,83,0.00,NA,NA,-99.99,VWS Version 10.38,2013-10-15 05:10:00,
2013-10-15 01:15:00,43.7,38.9,30.41,SSE,147,0.0,0.0,83,0.00,NA,NA,-99.99,VWS Version 10.38,2013-10-15 05:15:00,
2013-10-15 01:25:00,43.5,38.7,30.41,SSE,147,0.0,0.0,83,0.00,NA,NA,-99.99,VWS Version 10.38,2013-10-15 05:25:00,
2013-10-15 01:30:00,43.5,38.7,30.41,SSE,147,0.0,0.0,83,0.00,NA,NA,-99.99,VWS Version 10.38,2013-10-15 05:30:00,
2013-10-15 01:35:00,43.7,39.2,30.41,SSE,147,0.0,0.0,84,0.00,NA,NA,-99.99,VWS Version 10.38,2013-10-15 05:35:00,
2013-10-15 01:40:00,43.7,39.2,30.41,SSE,147,0.0,0.0,84,0.00,NA,NA,-99.99,VWS Version 10.38,2013-10-15 05:40:00,
2013-10-15 01:45:00,43.7,39.2,30.41,SSE,147,0.0,0.0,84,0.00,NA,NA,-99.99,VWS Version 10.38,2013-10-15 05:45:00,
2013-10-15 01:50:00,43.7,39.2,30.41,SSE,147,0.0,0.0,84,0.00,NA,NA,-99.99,VWS Version 10.38,2013-10-15 05:50:00,
2013-10-15 02:00:00,44.1,39.8,30.41,SSE,147,0.0,0.0,85,0.00,NA,NA,-99.99,VWS Version 10.38,2013-10-15 06:00:00,
2013-10-15 02:05:00,44.2,40.0,30.41,SSE,147,0.0,0.0,85,0.00,NA,NA,-99.99,VWS Version 10.38,2013-10-15 06:05:00,
2013-10-15 02:10:00,44.2,40.0,30.38,SSE,147,0.0,0.0,85,0.00,NA,NA,-99.99,VWS Version 10.38,2013-10-15 06:10:00,
2013-10-15 02:15:00,44.2,40.0,30.38,SSE,147,0.0,0.0,85,0.00,NA,NA,-99.99,VWS Version 10.38,2013-10-15 06:15:00,
2013-10-15 02:20:00,44.2,40.0,30.38,SSE,147,0.0,0.0,85,0.00,NA,NA,-99.99,VWS Version 10.38,2013-10-15 06:20:00,
2013-10-15 02:25:00,44.2,40.0,30.38,SSE,147,0.0,0.0,85,0.00,NA,NA,-99.99,VWS Version 10.38,2013-10-15 06:25:00,
2013-10-15 02:35:00,44.6,40.4,30.38,SSE,147,0.0,0.0,85,0.00,NA,NA,-99.99,VWS Version 10.38,2013-10-15 06:35:00,
2013-10-15 02:40:00,44.6,40.4,30.38,SSE,147,0.0,0.0,85,0.00,NA,NA,-99.99,VWS Version 10.38,2013-10-15 06:40:00,
2013-10-15 02:45:00,44.6,40.4,30.38,SSE,147,0.0,0.0,85,0.00,NA,NA,-99.99,VWS Version 10.38,2013-10-15 06:45:00,
2013-10-15 02:50:00,44.6,40.4,30.38,SSE,147,0.0,0.0,85,0.00,NA,NA,-99.99,VWS Version 10.38,2013-10-15 06:50:00,
2013-10-15 02:55:00,44.6,40.4,30.38,SSE,147,0.0,0.0,85,0.00,NA,NA,-99.99,VWS Version 10.38,2013-10-15 06:55:00,
2013-10-15 03:00:00,44.8,40.5,30.38,SSE,147,0.0,0.0,85,0.00,NA,NA,-99.99,VWS Version 10.38,2013-10-15 07:00:00,
2013-10-15 03:09:00,44.8,40.5,30.38,SSE,147,0.0,0.0,85,0.00,NA,NA,-99.99,VWS Version 10.38,2013-10-15 07:09:00,
2013-10-15 03:14:00,44.6,40.4,30.38,SSE,147,0.0,0.0,85,0.00,NA,NA,-99.99,VWS Version 10.38,2013-10-15 07:14:00,
2013-10-15 03:19:00,44.6,40.4,30.38,SSE,147,0.0,0.0,85,0.00,NA,NA,-99.99,VWS Version 10.38,2013-10-15 07:19:00,
2013-10-15 03:24:00,44.6,40.4,30.38,SSE,147,0.0,0.0,85,0.00,NA,NA,-99.99,VWS Version 10.38,2013-10-15 07:24:00,
2013-10-15 03:29:00,44.8,40.5,30.38,SSE,147,0.0,0.0,85,0.00,NA,NA,-99.99,VWS Version 10.38,2013-10-15 07:29:00,
2013-10-15 03:34:00,44.8,40.5,30.38,SSE,147,0.0,0.0,85,0.00,NA,NA,-99.99,VWS Version 10.38,2013-10-15 07:34:00,
2013-10-15 03:44:00,44.6,40.4,30.38,SSE,147,0.0,0.0,85,0.00,NA,NA,-99.99,VWS Version 10.38,2013-10-15 07:44:00,
2013-10-15 03:49:00,44.2,40.3,30.38,SSE,147,0.0,0.0,86,0.00,NA,NA,-99.99,VWS Version 10.38,2013-10-15 07:49:00,
2013-10-15 03:54:00,44.2,40.3,30.38,SSE,147,0.0,0.0,86,0.00,NA,NA,-99.99,VWS Version 10.38,2013-10-15 07:54:00,
2013-10-15 03:59:00,44.1,40.2,30.38,SSE,147,0.0,0.0,86,0.00,NA,NA,-99.99,VWS Version 10.38,2013-10-15 07:59:00,
2013-10-15 04:04:00,44.1,40.2,30.38,SSE,147,0.0,0.0,86,0.00,NA,NA,-99.99,VWS Version 10.38,2013-10-15 08:04:00,
2013-10-15 04:09:00,44.1,40.2,30.38,SSE,147,0.0,0.0,86,0.00,NA,NA,-99.99,VWS Version 10.38,2013-10-15 08:09:00,
2013-10-15 04:19:00,43.7,39.8,30.38,SSE,147,0.0,0.0,86,0.00,NA,NA,-99.99,VWS Version 10.38,2013-10-15 08:19:00,
2013-10-15 04:24:00,43.7,39.8,30.38,SSE,147,0.0,0.0,86,0.00,NA,NA,-99.99,VWS Version 10.38,2013-10-15 08:24:00,
2013-10-15 04:29:00,43.7,39.8,30.38,SSE,147,0.0,0.0,86,0.00,NA,NA,-99.99,VWS Version 10.38,2013-10-15 08:29:00,
2013-10-15 04:34:00,43.7,39.8,30.38,SSE,147,0.0,0.0,86,0.00,NA,NA,-99.99,VWS Version 10.38,2013-10-15 08:34:00,
2013-10-15 04:39:00,43.9,40.0,30.38,SSE,147,0.0,0.0,86,0.00,NA,NA,-99.99,VWS Version 10.38,2013-10-15 08:39:00,
2013-10-15 04:44:00,44.1,40.2,30.38,SSE,147,0.0,0.0,86,0.00,NA,NA,-99.99,VWS Version 10.38,2013-10-15 08:44:00,
2013-10-15 04:54:00,44.6,40.7,30.38,SSE,147,0.0,0.0,86,0.00,NA,NA,-99.99,VWS Version 10.38,2013-10-15 08:54:00,
2013-10-15 04:59:00,44.8,41.2,30.38,SSE,147,0.0,0.0,87,0.00,NA,NA,-99.99,VWS Version 10.38,2013-10-15 08:59:00,
2013-10-15 05:04:00,45.3,41.7,30.38,SSE,147,0.0,0.0,87,0.00,NA,NA,-99.99,VWS Version 10.38,2013-10-15 09:04:00,
2013-10-15 05:09:00,45.5,41.9,30.38,SSE,147,0.0,0.0,87,0.00,NA,NA,-99.99,VWS Version 10.38,2013-10-15 09:09:00,
2013-10-15 05:14:00,45.9,42.2,30.38,SSE,147,0.0,0.0,87,0.00,NA,NA,-99.99,VWS Version 10.38,2013-10-15 09:14:00,
2013-10-15 05:19:00,45.9,42.2,30.38,SSE,147,0.0,0.0,87,0.00,NA,NA,-99.99,VWS Version 10.38,2013-10-15 09:19:00,
2013-10-15 05:29:00,46.0,42.4,30.38,SSE,147,0.0,0.0,87,0.00,NA,NA,-99.99,VWS Version 10.38,2013-10-15 09:29:00,
2013-10-15 05:34:00,46.0,42.4,30.38,SSE,147,0.0,0.0,87,0.00,NA,NA,-99.99,VWS Version 10.38,2013-10-15 09:34:00,
2013-10-15 05:39:00,46.0,42.4,30.38,SSE,147,0.0,0.0,87,0.00,NA,NA,-99.99,VWS Version 10.38,2013-10-15 09:39:00,
2013-10-15 05:44:00,46.0,42.4,30.38,SSE,147,0.0,0.0,87,0.00,NA,NA,-99.99,VWS Version 10.38,2013-10-15 09:44:00,
2013-10-15 05:49:00,46.2,42.6,30.38,SSE,147,0.0,0.0,87,0.00,NA,NA,-99.99,VWS Version 10.38,2013-10-15 09:49:00,
2013-10-15 05:54:00,46.0,42.4,30.38,SSE,147,0.0,0.0,87,0.00,NA,NA,-99.99,VWS Version 10.38,2013-10-15 09:54:00,
2013-10-15 06:04:00,46.0,42.4,30.38,SSE,147,0.0,0.0,87,0.00,NA,NA,-99.99,VWS Version 10.38,2013-10-15 10:04:00,
2013-10-15 06:09:00,45.9,42.2,30.38,SSE,147,0.0,0.0,87,0.00,NA,NA,-99.99,VWS Version 10.38,2013-10-15 10:09:00,
2013-10-15 06:14:00,45.7,42.0,30.38,SSE,147,0.0,0.0,87,0.00,NA,NA,-99.99,VWS Version 10.38,2013-10-15 10:14:00,
2013-10-15 06:19:00,45.3,41.7,30.38,SSE,147,0.0,0.0,87,0.00,NA,NA,-99.99,VWS Version 10.38,2013-10-15 10:19:00,
2013-10-15 06:29:00,45.0,41.3,30.38,SSE,147,0.0,0.0,87,0.00,NA,NA,-99.99,VWS Version 10.38,2013-10-15 10:29:00,
2013-10-15 06:39:00,44.6,40.7,30.38,SSE,147,0.0,0.0,86,0.00,NA,NA,-99.99,VWS Version 10.38,2013-10-15 10:39:00,
2013-10-15 06:44:00,44.4,40.8,30.38,SSE,147,0.0,0.0,87,0.00,NA,NA,-99.99,VWS Version 10.38,2013-10-15 10:44:00,
2013-10-15 06:49:00,44.4,40.8,30.38,SSE,147,0.0,0.0,87,0.00,NA,NA,-99.99,VWS Version 10.38,2013-10-15 10:49:00,
2013-10-15 06:54:00,44.6,41.0,30.38,SSE,147,0.0,0.0,87,0.00,NA,NA,-99.99,VWS Version 10.38,2013-10-15 10:54:00,
2013-10-15 06:59:00,44.6,41.0,30.38,SSE,147,0.0,0.0,87,0.00,NA,NA,-99.99,VWS Version 10.38,2013-10-15 10:59:00,
2013-10-15 07:04:00,45.0,41.3,30.38,SSE,147,0.0,0.0,87,0.00,NA,NA,-99.99,VWS Version 10.38,2013-10-15 11:04:00,
2013-10-15 07:14:00,45.9,42.5,30.38,SSE,147,0.0,0.0,88,0.00,NA,NA,-99.99,VWS Version 10.38,2013-10-15 11:14:00,
2013-10-15 07:19:00,46.2,42.9,30.38,SSE,147,0.0,0.0,88,0.00,NA,NA,-99.99,VWS Version 10.38,2013-10-15 11:19:00,
2013-10-15 07:24:00,46.6,43.2,30.38,SSE,147,0.0,0.0,88,0.00,NA,NA,-99.99,VWS Version 10.38,2013-10-15 11:24:00,
2013-10-15 07:29:00,46.9,43.6,30.38,SSE,147,0.0,0.0,88,0.00,NA,NA,-99.99,VWS Version 10.38,2013-10-15 11:29:00,
2013-10-15 07:34:00,47.3,43.9,30.38,SSE,147,0.0,0.0,88,0.00,NA,NA,-99.99,VWS Version 10.38,2013-10-15 11:34:00,
2013-10-15 07:39:00,47.7,44.6,30.38,SSE,147,0.0,0.0,89,0.00,NA,NA,-99.99,VWS Version 10.38,2013-10-15 11:39:00,
2013-10-15 07:44:00,48.0,44.9,30.38,SSE,147,0.0,0.0,89,0.00,NA,NA,-99.99,VWS Version 10.38,2013-10-15 11:44:00,
2013-10-15 07:54:00,48.7,45.7,30.38,SSE,147,0.0,0.0,89,0.00,NA,NA,-99.99,VWS Version 10.38,2013-10-15 11:54:00,
2013-10-15 07:59:00,49.1,46.0,30.38,SSE,147,0.0,0.0,89,0.00,NA,NA,-99.99,VWS Version 10.38,2013-10-15 11:59:00,
2013-10-15 08:04:00,49.3,46.2,30.38,SSE,147,0.0,0.0,89,0.00,NA,NA,-99.99,VWS Version 10.38,2013-10-15 12:04:00,
2013-10-15 08:09:00,49.5,46.4,30.38,SSE,147,0.0,0.0,89,0.00,NA,NA,-99.99,VWS Version 10.38,2013-10-15 12:09:00,
2013-10-15 08:14:00,49.8,46.7,30.38,SSE,147,0.0,0.0,89,0.00,NA,NA,-99.99,VWS Version 10.38,2013-10-15 12:14:00,
2013-10-15 08:19:00,50.2,47.1,30.38,SSE,147,0.0,0.0,89,0.00,NA,NA,-99.99,VWS Version 10.38,2013-10-15 12:19:00,
2013-10-15 08:29:00,50.9,47.8,30.38,SSE,147,0.0,0.0,89,0.00,NA,NA,-99.99,VWS Version 10.38,2013-10-15 12:29:00,
2013-10-15 08:34:00,51.3,48.1,30.38,SSE,147,0.0,0.0,89,0.00,NA,NA,-99.99,VWS Version 10.38,2013-10-15 12:34:00,
2013-10-15 08:39:00,51.6,48.8,30.38,SSE,147,0.0,0.0,90,0.00,NA,NA,-99.99,VWS Version 10.38,2013-10-15 12:39:00,
2013-10-15 08:44:00,52.0,48.8,30.38,SSE,147,0.0,0.0,89,0.00,NA,NA,-99.99,VWS Version 10.38,2013-10-15 12:44:00,
2013-10-15 08:49:00,52.5,49.4,30.38,SSE,147,0.0,0.0,89,0.00,NA,NA,-99.99,VWS Version 10.38,2013-10-15 12:49:00,
2013-10-15 08:54:00,53.1,50.2,30.38,SSE,147,0.0,0.0,90,0.00,NA,NA,-99.99,VWS Version 10.38,2013-10-15 12:54:00,
2013-10-15 09:04:00,53.4,50.3,30.38,SSE,147,0.0,0.0,89,0.00,NA,NA,-99.99,VWS Version 10.38,2013-10-15 13:04:00,
2013-10-15 09:09:00,53.8,50.6,30.38,SSE,147,0.0,0.0,89,0.00,NA,NA,-99.99,VWS Version 10.38,2013-10-15 13:09:00,
2013-10-15 09:14:00,54.7,51.8,30.38,SSE,147,0.0,0.0,90,0.00,NA,NA,-99.99,VWS Version 10.38,2013-10-15 13:14:00,
2013-10-15 09:19:00,55.4,52.5,30.38,SSE,147,0.0,0.0,90,0.00,NA,NA,-99.99,VWS Version 10.38,2013-10-15 13:19:00,
2013-10-15 09:24:00,55.6,52.4,30.38,SSE,147,0.0,0.0,89,0.00,NA,NA,-99.99,VWS Version 10.38,2013-10-15 13:24:00,
2013-10-15 09:29:00,55.6,52.4,30.38,SSE,147,0.0,0.0,89,0.00,NA,NA,-99.99,VWS Version 10.38,2013-10-15 13:29:00,
2013-10-15 09:34:00,55.9,52.8,30.38,East,81,0.0,0.0,89,0.00,NA,NA,-99.99,VWS Version 10.38,2013-10-15 13:34:00,
2013-10-15 09:39:00,56.1,52.9,30.38,NNE,33,0.0,0.0,89,0.00,NA,NA,-99.99,VWS Version 10.38,2013-10-15 13:39:00,
2013-10-15 09:44:00,56.8,53.9,30.38,ENE,78,0.0,0.0,90,0.00,NA,NA,-99.99,VWS Version 10.38,2013-10-15 13:44:00,
2013-10-15 09:49:00,58.1,55.2,30.38,NE,48,0.0,0.0,90,0.00,NA,NA,-99.99,VWS Version 10.38,2013-10-15 13:49:00,
2013-10-15 09:59:00,60.8,57.8,30.38,SE,142,0.0,0.0,90,0.00,NA,NA,-99.99,VWS Version 10.38,2013-10-15 13:59:00,
2013-10-15 10:04:00,61.7,58.4,30.38,SSE,162,0.0,0.0,89,0.00,NA,NA,-99.99,VWS Version 10.38,2013-10-15 14:04:00,
2013-10-15 10:09:00,63.0,59.7,30.38,SSW,202,0.0,0.0,89,0.00,NA,NA,-99.99,VWS Version 10.38,2013-10-15 14:09:00,
2013-10-15 10:14:00,63.9,60.2,30.38,NW,304,0.0,0.0,88,0.00,NA,NA,-99.99,VWS Version 10.38,2013-10-15 14:14:00,
2013-10-15 10:19:00,64.4,59.1,30.38,ESE,120,4.0,4.0,83,0.00,NA,NA,-99.99,VWS Version 10.38,2013-10-15 14:19:00,
2013-10-15 10:24:00,64.8,52.3,30.38,NW,310,3.6,3.6,64,0.00,NA,NA,-99.99,VWS Version 10.38,2013-10-15 14:24:00,
2013-10-15 10:29:00,65.5,49.4,30.38,SE,145,4.0,4.0,56,0.00,NA,NA,-99.99,VWS Version 10.38,2013-10-15 14:29:00,
2013-10-15 10:34:00,66.0,48.9,30.38,SE,139,0.0,0.0,54,0.00,NA,NA,-99.99,VWS Version 10.38,2013-10-15 14:34:00,
2013-10-15 10:40:00,66.7,47.5,30.38,SSE,152,0.0,0.0,50,0.00,NA,NA,-99.99,VWS Version 10.38,2013-10-15 14:40:00,
2013-10-15 10:45:00,67.1,46.2,30.38,ESE,112,3.1,3.1,47,0.00,NA,NA,-99.99,VWS Version 10.38,2013-10-15 14:45:00,
2013-10-15 10:50:00,66.9,41.2,30.38,ENE,60,3.1,3.1,39,0.00,NA,NA,-99.99,VWS Version 10.38,2013-10-15 14:50:00,
2013-10-15 10:55:00,66.9,42.5,30.38,SSE,151,2.2,2.2,41,0.00,NA,NA,-99.99,VWS Version 10.38,2013-10-15 14:55:00,
2013-10-15 11:00:00,66.9,41.8,30.38,SSE,160,0.0,0.0,40,0.00,NA,NA,-99.99,VWS Version 10.38,2013-10-15 15:00:00,
2013-10-15 11:10:00,66.9,41.8,30.38,SE,139,0.0,0.0,40,0.00,NA,NA,-99.99,VWS Version 10.38,2013-10-15 15:10:00,
2013-10-15 11:15:00,67.1,41.3,30.38,South,188,0.0,0.0,39,0.00,NA,NA,-99.99,VWS Version 10.38,2013-10-15 15:15:00,
2013-10-15 11:20:00,67.3,40.1,30.38,SE,140,0.0,0.0,37,0.00,NA,NA,-99.99,VWS Version 10.38,2013-10-15 15:20:00,
2013-10-15 11:25:00,67.3,40.1,30.38,SE,146,2.7,2.7,37,0.00,NA,NA,-99.99,VWS Version 10.38,2013-10-15 15:25:00,
2013-10-15 11:30:00,67.3,39.4,30.38,South,178,0.0,0.0,36,0.00,NA,NA,-99.99,VWS Version 10.38,2013-10-15 15:30:00,
2013-10-15 11:35:00,67.6,38.3,30.38,ESE,112,0.0,0.0,34,0.00,NA,NA,-99.99,VWS Version 10.38,2013-10-15 15:35:00,
2013-10-15 11:45:00,67.8,38.5,30.38,SE,146,0.0,0.0,34,0.00,NA,NA,-99.99,VWS Version 10.38,2013-10-15 15:45:00,
2013-10-15 11:50:00,68.0,38.6,30.38,SE,125,0.0,0.0,34,0.00,NA,NA,-99.99,VWS Version 10.38,2013-10-15 15:50:00,
2013-10-15 11:55:00,68.0,37.8,30.38,SE,138,0.0,0.0,33,0.00,NA,NA,-99.99,VWS Version 10.38,2013-10-15 15:55:00,
2013-10-15 12:00:00,68.0,37.8,30.38,SE,146,0.0,0.0,33,0.00,NA,NA,-99.99,VWS Version 10.38,2013-10-15 16:00:00,
2013-10-15 12:05:00,68.0,37.8,30.38,SE,126,0.0,0.0,33,0.00,NA,NA,-99.99,VWS Version 10.38,2013-10-15 16:05:00,
2013-10-15 12:10:00,68.2,38.0,30.35,SE,135,4.0,4.0,33,0.00,NA,NA,-99.99,VWS Version 10.38,2013-10-15 16:10:00,
2013-10-15 12:15:00,68.2,37.2,30.35,SE,136,3.6,3.6,32,0.00,NA,NA,-99.99,VWS Version 10.38,2013-10-15 16:15:00,
2013-10-15 12:20:00,68.2,36.4,30.35,East,90,3.1,3.1,31,0.00,NA,NA,-99.99,VWS Version 10.38,2013-10-15 16:20:00,
2013-10-15 12:25:00,68.2,37.2,30.35,SSE,153,2.7,2.7,32,0.00,NA,NA,-99.99,VWS Version 10.38,2013-10-15 16:25:00,
2013-10-15 12:35:00,68.4,36.6,30.35,ESE,105,0.0,0.0,31,0.00,NA,NA,-99.99,VWS Version 10.38,2013-10-15 16:35:00,
2013-10-15 12:40:00,68.5,37.5,30.35,SE,135,0.0,0.0,32,0.00,NA,NA,-99.99,VWS Version 10.38,2013-10-15 16:40:00,
2013-10-15 12:45:00,68.9,37.8,30.35,SW,229,2.2,2.2,32,0.00,NA,NA,-99.99,VWS Version 10.38,2013-10-15 16:45:00,
2013-10-15 12:50:00,69.1,38.0,30.35,NE,36,4.0,4.0,32,0.00,NA,NA,-99.99,VWS Version 10.38,2013-10-15 16:50:00,
2013-10-15 12:55:00,69.1,36.4,30.35,SE,138,0.0,0.0,30,0.00,NA,NA,-99.99,VWS Version 10.38,2013-10-15 16:55:00,
2013-10-15 13:00:00,69.3,35.7,30.35,NE,41,3.6,3.6,29,0.00,NA,NA,-99.99,VWS Version 10.38,2013-10-15 17:00:00,
2013-10-15 13:09:00,69.6,34.2,30.35,SSE,151,2.7,2.7,27,0.00,NA,NA,-99.99,VWS Version 10.38,2013-10-15 17:09:00,
2013-10-15 13:14:00,70.0,35.4,30.35,East,85,0.0,0.0,28,0.00,NA,NA,-99.99,VWS Version 10.38,2013-10-15 17:14:00,
2013-10-15 13:19:00,70.2,33.7,30.35,East,88,3.1,3.1,26,0.00,NA,NA,-99.99,VWS Version 10.38,2013-10-15 17:19:00,
2013-10-15 13:25:00,70.5,35.0,30.32,NE,48,0.0,0.0,27,0.00,NA,NA,-99.99,VWS Version 10.38,2013-10-15 17:25:00,
2013-10-15 13:34:00,70.9,34.3,30.32,SSE,153,2.7,2.7,26,0.00,NA,NA,-99.99,VWS Version 10.38,2013-10-15 17:34:00,
2013-10-15 13:39:00,71.4,35.7,30.32,SSE,155,3.1,3.1,27,0.00,NA,NA,-99.99,VWS Version 10.38,2013-10-15 17:39:00,
2013-10-15 13:49:00,70.9,34.3,30.32,ESE,117,0.0,0.0,26,0.00,NA,NA,-99.99,VWS Version 10.38,2013-10-15 17:49:00,
2013-10-15 13:54:00,71.4,35.7,30.32,ENE,75,0.0,0.0,27,0.00,NA,NA,-99.99,VWS Version 10.38,2013-10-15 17:54:00,
2013-10-15 13:59:00,72.5,34.7,30.32,ENE,64,0.0,0.0,25,0.00,NA,NA,-99.99,VWS Version 10.38,2013-10-15 17:59:00,
2013-10-15 14:04:00,73.2,34.3,30.32,ESE,115,3.6,3.6,24,0.00,NA,NA,-99.99,VWS Version 10.38,2013-10-15 18:04:00,
2013-10-15 14:09:00,74.3,35.2,30.32,SSE,162,3.6,3.6,24,0.00,NA,NA,-99.99,VWS Version 10.38,2013-10-15 18:09:00,
2013-10-15 14:14:00,74.3,34.1,30.32,East,87,3.6,3.6,23,0.00,NA,NA,-99.99,VWS Version 10.38,2013-10-15 18:14:00,
2013-10-15 14:24:00,73.6,34.6,30.32,NE,48,0.0,0.0,24,0.00,NA,NA,-99.99,VWS Version 10.38,2013-10-15 18:24:00,
2013-10-15 14:29:00,73.6,34.6,30.32,SE,141,3.6,3.6,24,0.00,NA,NA,-99.99,VWS Version 10.38,2013-10-15 18:29:00,
2013-10-15 14:34:00,73.4,35.5,30.32,SSE,167,3.1,3.1,25,0.00,NA,NA,-99.99,VWS Version 10.38,2013-10-15 18:34:00,
2013-10-15 14:39:00,73.2,35.3,30.32,SE,143,3.6,3.6,25,0.00,NA,NA,-99.99,VWS Version 10.38,2013-10-15 18:39:00,
2013-10-15 14:44:00,72.7,34.9,30.32,SSE,154,3.1,3.1,25,0.00,NA,NA,-99.99,VWS Version 10.38,2013-10-15 18:44:00,
2013-10-15 14:54:00,72.3,35.5,30.29,SSE,153,2.7,2.7,26,0.00,NA,NA,-99.99,VWS Version 10.38,2013-10-15 18:54:00,
2013-10-15 14:59:00,72.1,35.4,30.29,ENE,65,3.1,3.1,26,0.00,NA,NA,-99.99,VWS Version 10.38,2013-10-15 18:59:00,
2013-10-15 15:04:00,71.8,36.0,30.29,ESE,105,4.0,4.0,27,0.00,NA,NA,-99.99,VWS Version 10.38,2013-10-15 19:04:00,
2013-10-15 15:09:00,71.6,35.9,30.29,SE,132,3.6,3.6,27,0.00,NA,NA,-99.99,VWS Version 10.38,2013-10-15 19:09:00,
2013-10-15 15:14:00,71.6,35.9,30.29,ESE,121,2.7,2.7,27,0.00,NA,NA,-99.99,VWS Version 10.38,2013-10-15 19:14:00,
2013-10-15 15:19:00,71.6,35.9,30.29,SSE,153,0.0,0.0,27,0.00,NA,NA,-99.99,VWS Version 10.38,2013-10-15 19:19:00,
2013-10-15 15:24:00,72.1,36.3,30.29,ENE,62,0.0,0.0,27,0.00,NA,NA,-99.99,VWS Version 10.38,2013-10-15 19:24:00,
2013-10-15 15:34:00,72.5,35.7,30.29,South,173,3.6,3.6,26,0.00,NA,NA,-99.99,VWS Version 10.38,2013-10-15 19:34:00,
2013-10-15 15:39:00,72.5,36.7,30.29,South,185,0.0,0.0,27,0.00,NA,NA,-99.99,VWS Version 10.38,2013-10-15 19:39:00,
2013-10-15 15:44:00,72.5,35.7,30.29,SE,145,3.6,3.6,26,0.00,NA,NA,-99.99,VWS Version 10.38,2013-10-15 19:44:00,
2013-10-15 15:49:00,72.1,36.3,30.29,SSW,200,0.0,0.0,27,0.00,NA,NA,-99.99,VWS Version 10.38,2013-10-15 19:49:00,
2013-10-15 15:54:00,71.8,36.0,30.29,SSE,161,3.1,3.1,27,0.00,NA,NA,-99.99,VWS Version 10.38,2013-10-15 19:54:00,
2013-10-15 15:59:00,71.6,35.9,30.29,SSW,206,0.0,0.0,27,0.00,NA,NA,-99.99,VWS Version 10.38,2013-10-15 19:59:00,
2013-10-15 16:09:00,71.2,35.6,30.29,SE,137,2.7,2.7,27,0.00,NA,NA,-99.99,VWS Version 10.38,2013-10-15 20:09:00,
2013-10-15 16:19:00,70.3,33.9,30.29,SE,142,4.0,4.0,26,0.00,NA,NA,-99.99,VWS Version 10.38,2013-10-15 20:19:00,
2013-10-15 16:24:00,70.2,33.7,30.29,SSE,150,3.1,3.1,26,0.00,NA,NA,-99.99,VWS Version 10.38,2013-10-15 20:24:00,
2013-10-15 16:29:00,69.8,33.4,30.29,SE,139,4.0,4.0,26,0.00,NA,NA,-99.99,VWS Version 10.38,2013-10-15 20:29:00,
2013-10-15 16:34:00,69.4,33.1,30.29,South,170,0.0,0.0,26,0.00,NA,NA,-99.99,VWS Version 10.38,2013-10-15 20:34:00,
2013-10-15 16:39:00,69.1,32.8,30.29,South,179,2.7,2.7,26,0.00,NA,NA,-99.99,VWS Version 10.38,2013-10-15 20:39:00,
2013-10-15 16:49:00,68.4,32.2,30.29,SE,146,4.0,4.0,26,0.00,NA,NA,-99.99,VWS Version 10.38,2013-10-15 20:49:00,
2013-10-15 16:54:00,68.0,31.9,30.29,SE,135,2.7,2.7,26,0.00,NA,NA,-99.99,VWS Version 10.38,2013-10-15 20:54:00,
2013-10-15 16:59:00,67.6,32.5,30.29,SE,145,2.7,2.7,27,0.00,NA,NA,-99.99,VWS Version 10.38,2013-10-15 20:59:00,
2013-10-15 17:04:00,67.3,32.2,30.29,SSE,149,3.6,3.6,27,0.00,NA,NA,-99.99,VWS Version 10.38,2013-10-15 21:04:00,
2013-10-15 17:09:00,66.9,31.9,30.29,SE,140,2.7,2.7,27,0.00,NA,NA,-99.99,VWS Version 10.38,2013-10-15 21:09:00,
2013-10-15 17:19:00,66.0,31.1,30.29,SSE,155,2.7,2.7,27,0.00,NA,NA,-99.99,VWS Version 10.38,2013-10-15 21:19:00,
2013-10-15 17:24:00,65.5,30.6,30.29,SSE,152,2.7,2.7,27,0.00,NA,NA,-99.99,VWS Version 10.38,2013-10-15 21:24:00,
2013-10-15 17:29:00,64.9,30.2,30.29,SE,143,3.1,3.1,27,0.00,NA,NA,-99.99,VWS Version 10.38,2013-10-15 21:29:00,
2013-10-15 17:34:00,64.2,29.6,30.29,SSE,147,0.0,0.0,27,0.00,NA,NA,-99.99,VWS Version 10.38,2013-10-15 21:34:00,
2013-10-15 17:39:00,63.7,30.0,30.29,SSE,148,0.0,0.0,28,0.00,NA,NA,-99.99,VWS Version 10.38,2013-10-15 21:39:00,
2013-10-15 17:44:00,63.1,29.5,30.29,SSE,147,0.0,0.0,28,0.00,NA,NA,-99.99,VWS Version 10.38,2013-10-15 21:44:00,
2013-10-15 17:54:00,62.1,29.5,30.29,SSE,147,0.0,0.0,29,0.00,NA,NA,-99.99,VWS Version 10.38,2013-10-15 21:54:00,
2013-10-15 17:59:00,61.5,29.0,30.29,SSE,147,0.0,0.0,29,0.00,NA,NA,-99.99,VWS Version 10.38,2013-10-15 21:59:00,
2013-10-15 18:04:00,61.0,29.4,30.29,SSE,147,0.0,0.0,30,0.00,NA,NA,-99.99,VWS Version 10.38,2013-10-15 22:04:00,
2013-10-15 18:09:00,60.4,29.7,30.29,SSE,147,0.0,0.0,31,0.00,NA,NA,-99.99,VWS Version 10.38,2013-10-15 22:09:00,
2013-10-15 18:14:00,59.7,29.8,30.29,SSE,147,0.0,0.0,32,0.00,NA,NA,-99.99,VWS Version 10.38,2013-10-15 22:14:00,
2013-10-15 18:19:00,59.2,30.9,30.29,SSE,147,0.0,0.0,34,0.00,NA,NA,-99.99,VWS Version 10.38,2013-10-15 22:19:00,
2013-10-15 18:24:00,58.6,31.1,30.29,SSE,147,0.0,0.0,35,0.00,NA,NA,-99.99,VWS Version 10.38,2013-10-15 22:24:00,
2013-10-15 18:34:00,57.4,31.3,30.29,SSE,147,0.0,0.0,37,0.00,NA,NA,-99.99,VWS Version 10.38,2013-10-15 22:34:00,
2013-10-15 18:39:00,56.7,31.4,30.29,SSE,147,0.0,0.0,38,0.00,NA,NA,-99.99,VWS Version 10.38,2013-10-15 22:39:00,
2013-10-15 18:44:00,56.1,31.5,30.29,SSE,147,0.0,0.0,39,0.00,NA,NA,-99.99,VWS Version 10.38,2013-10-15 22:44:00,
2013-10-15 18:49:00,55.8,31.2,30.29,SSE,147,0.0,0.0,39,0.00,NA,NA,-99.99,VWS Version 10.38,2013-10-15 22:49:00,
2013-10-15 18:54:00,55.4,31.5,30.29,SSE,147,0.0,0.0,40,0.00,NA,NA,-99.99,VWS Version 10.38,2013-10-15 22:54:00,
2013-10-15 19:04:00,54.5,31.9,30.32,SSE,147,0.0,0.0,42,0.00,NA,NA,-99.99,VWS Version 10.38,2013-10-15 23:04:00,
2013-10-15 19:09:00,54.1,32.7,30.32,SSE,147,0.0,0.0,44,0.00,NA,NA,-99.99,VWS Version 10.38,2013-10-15 23:09:00,
2013-10-15 19:14:00,53.8,33.0,30.32,SSE,147,0.0,0.0,45,0.00,NA,NA,-99.99,VWS Version 10.38,2013-10-15 23:14:00,
2013-10-15 19:19:00,53.4,33.2,30.32,SSE,147,0.0,0.0,46,0.00,NA,NA,-99.99,VWS Version 10.38,2013-10-15 23:19:00,
2013-10-15 19:24:00,53.1,32.8,30.32,SSE,147,0.0,0.0,46,0.00,NA,NA,-99.99,VWS Version 10.38,2013-10-15 23:24:00,
2013-10-15 19:29:00,52.9,33.2,30.32,SSE,147,0.0,0.0,47,0.00,NA,NA,-99.99,VWS Version 10.38,2013-10-15 23:29:00,
2013-10-15 19:39:00,52.2,33.1,30.32,SSE,147,0.0,0.0,48,0.00,NA,NA,-99.99,VWS Version 10.38,2013-10-15 23:39:00,
2013-10-15 19:44:00,52.0,32.9,30.32,SSE,147,0.0,0.0,48,0.00,NA,NA,-99.99,VWS Version 10.38,2013-10-15 23:44:00,
2013-10-15 19:49:00,51.6,33.6,30.32,SSE,147,0.0,0.0,50,0.00,NA,NA,-99.99,VWS Version 10.38,2013-10-15 23:49:00,
2013-10-15 19:54:00,51.4,33.4,30.32,SSE,147,0.0,0.0,50,0.00,NA,NA,-99.99,VWS Version 10.38,2013-10-15 23:54:00,
2013-10-15 19:59:00,51.3,33.8,30.32,SSE,147,0.0,0.0,51,0.00,NA,NA,-99.99,VWS Version 10.38,2013-10-15 23:59:00,
2013-10-15 20:04:00,51.1,34.1,30.32,SSE,147,0.0,0.0,52,0.00,NA,NA,-99.99,VWS Version 10.38,2013-10-16 00:04:00,
2013-10-15 20:14:00,50.7,34.2,30.32,SSE,147,0.0,0.0,53,0.00,NA,NA,-99.99,VWS Version 10.38,2013-10-16 00:14:00,
2013-10-15 20:19:00,50.4,34.4,30.32,SSE,147,0.0,0.0,54,0.00,NA,NA,-99.99,VWS Version 10.38,2013-10-16 00:19:00,
2013-10-15 20:24:00,50.2,34.7,30.32,SSE,147,0.0,0.0,55,0.00,NA,NA,-99.99,VWS Version 10.38,2013-10-16 00:24:00,
2013-10-15 20:29:00,50.2,35.1,30.32,SSE,147,0.0,0.0,56,0.00,NA,NA,-99.99,VWS Version 10.38,2013-10-16 00:29:00,
2013-10-15 20:34:00,50.0,34.9,30.32,SSE,147,0.0,0.0,56,0.00,NA,NA,-99.99,VWS Version 10.38,2013-10-16 00:34:00,
2013-10-15 20:40:00,50.0,35.4,30.32,SSE,147,0.0,0.0,57,0.00,NA,NA,-99.99,VWS Version 10.38,2013-10-16 00:40:00,
2013-10-15 20:45:00,49.8,35.7,30.32,SSE,147,0.0,0.0,58,0.00,NA,NA,-99.99,VWS Version 10.38,2013-10-16 00:45:00,
2013-10-15 20:50:00,49.6,35.9,30.32,SSE,147,0.0,0.0,59,0.00,NA,NA,-99.99,VWS Version 10.38,2013-10-16 00:50:00,
2013-10-15 21:00:00,49.3,36.0,30.32,SSE,147,0.0,0.0,60,0.00,NA,NA,-99.99,VWS Version 10.38,2013-10-16 01:00:00,
2013-10-15 21:05:00,49.1,36.2,30.32,SSE,147,0.0,0.0,61,0.00,NA,NA,-99.99,VWS Version 10.38,2013-10-16 01:05:00,
2013-10-15 21:10:00,49.1,36.7,30.32,SSE,147,0.0,0.0,62,0.00,NA,NA,-99.99,VWS Version 10.38,2013-10-16 01:10:00,
2013-10-15 21:20:00,48.9,36.9,30.32,SSE,147,0.0,0.0,63,0.00,NA,NA,-99.99,VWS Version 10.38,2013-10-16 01:20:00,
2013-10-15 21:25:00,48.7,37.1,30.32,SSE,147,0.0,0.0,64,0.00,NA,NA,-99.99,VWS Version 10.38,2013-10-16 01:25:00,
2013-10-15 21:30:00,48.7,37.1,30.32,SSE,147,0.0,0.0,64,0.00,NA,NA,-99.99,VWS Version 10.38,2013-10-16 01:30:00,
2013-10-15 21:40:00,48.4,37.6,30.32,SSE,147,0.0,0.0,66,0.00,NA,NA,-99.99,VWS Version 10.38,2013-10-16 01:40:00,
2013-10-15 21:45:00,48.2,37.4,30.32,SSE,147,0.0,0.0,66,0.00,NA,NA,-99.99,VWS Version 10.38,2013-10-16 01:45:00,
2013-10-15 21:50:00,48.2,37.8,30.32,SSE,147,0.0,0.0,67,0.00,NA,NA,-99.99,VWS Version 10.38,2013-10-16 01:50:00,
2013-10-15 21:55:00,48.0,38.0,30.32,SSE,147,0.0,0.0,68,0.00,NA,NA,-99.99,VWS Version 10.38,2013-10-16 01:55:00,
2013-10-15 22:00:00,48.0,38.0,30.32,SSE,147,0.0,0.0,68,0.00,NA,NA,-99.99,VWS Version 10.38,2013-10-16 02:00:00,
2013-10-15 22:05:00,47.8,38.2,30.32,SSE,147,0.0,0.0,69,0.00,NA,NA,-99.99,VWS Version 10.38,2013-10-16 02:05:00,
2013-10-15 22:15:00,47.7,38.4,30.32,SSE,147,0.0,0.0,70,0.00,NA,NA,-99.99,VWS Version 10.38,2013-10-16 02:15:00,
2013-10-15 22:20:00,47.7,38.4,30.32,SSE,147,0.0,0.0,70,0.00,NA,NA,-99.99,VWS Version 10.38,2013-10-16 02:20:00,
2013-10-15 22:25:00,47.5,38.2,30.32,SSE,147,0.0,0.0,70,0.00,NA,NA,-99.99,VWS Version 10.38,2013-10-16 02:25:00,
2013-10-15 22:30:00,47.3,38.0,30.32,SSE,147,0.0,0.0,70,0.00,NA,NA,-99.99,VWS Version 10.38,2013-10-16 02:30:00,
2013-10-15 22:35:00,47.3,38.4,30.32,SSE,147,0.0,0.0,71,0.00,NA,NA,-99.99,VWS Version 10.38,2013-10-16 02:35:00,
2013-10-15 22:40:00,47.3,38.4,30.32,SSE,147,0.0,0.0,71,0.00,NA,NA,-99.99,VWS Version 10.38,2013-10-16 02:40:00,
2013-10-15 22:45:00,47.1,38.2,30.32,SSE,147,0.0,0.0,71,0.00,NA,NA,-99.99,VWS Version 10.38,2013-10-16 02:45:00,
2013-10-15 22:54:00,46.8,38.2,30.32,SSE,147,0.0,0.0,72,0.00,NA,NA,-99.99,VWS Version 10.38,2013-10-16 02:54:00,
2013-10-15 22:59:00,46.8,38.2,30.32,SSE,147,0.0,0.0,72,0.00,NA,NA,-99.99,VWS Version 10.38,2013-10-16 02:59:00,
2013-10-15 23:04:00,46.6,38.4,30.32,SSE,147,0.0,0.0,73,0.00,NA,NA,-99.99,VWS Version 10.38,2013-10-16 03:04:00,
2013-10-15 23:09:00,46.6,38.4,30.32,SSE,147,0.0,0.0,73,0.00,NA,NA,-99.99,VWS Version 10.38,2013-10-16 03:09:00,
2013-10-15 23:14:00,46.6,38.4,30.32,SSE,147,0.0,0.0,73,0.00,NA,NA,-99.99,VWS Version 10.38,2013-10-16 03:14:00,
2013-10-15 23:24:00,46.4,38.6,30.29,SSE,147,0.0,0.0,74,0.00,NA,NA,-99.99,VWS Version 10.38,2013-10-16 03:24:00,
2013-10-15 23:29:00,46.2,38.8,30.29,SSE,147,0.0,0.0,75,0.00,NA,NA,-99.99,VWS Version 10.38,2013-10-16 03:29:00,
2013-10-15 23:34:00,46.2,38.8,30.29,SSE,147,0.0,0.0,75,0.00,NA,NA,-99.99,VWS Version 10.38,2013-10-16 03:34:00,
2013-10-15 23:39:00,46.2,38.8,30.29,SSE,147,0.0,0.0,75,0.00,NA,NA,-99.99,VWS Version 10.38,2013-10-16 03:39:00,
2013-10-15 23:44:00,46.2,38.8,30.29,SSE,147,0.0,0.0,75,0.00,NA,NA,-99.99,VWS Version 10.38,2013-10-16 03:44:00,
2013-10-15 23:49:00,46.0,38.6,30.29,SSE,147,0.0,0.0,75,0.00,NA,NA,-99.99,VWS Version 10.38,2013-10-16 03:49:00,
2013-10-15 23:54:00,46.0,38.9,30.29,SSE,147,0.0,0.0,76,0.00,NA,NA,-99.99,VWS Version 10.38,2013-10-16 03:54:00,